Time;durP1;ratioP1;P1;durP2;ratioP2;P2;SDS_P1;SDS_P2;PMS_P1;PMS_P2;Temp;Humidity;BMP_temperature;BMP_pressure;BME280_temperature;BME280_humidity;BME280_pressure;Samples;Min_cycle;Max_cycle;Signal;HPM_P1;HPM_P2
2021/11/27 00:01:00;;;;;;;;;;;14.80;99.90;;;;;;5090539;28;1906;-53
2021/11/27 00:03:27;;;;;;;;;;;14.80;99.90;;;;;;5062757;28;857;-53
2021/11/27 00:05:53;;;;;;;;;;;14.80;99.90;;;;;;5097672;28;1073;-53
2021/11/27 00:08:19;;;;;;;;;;;14.70;99.90;;;;;;5097574;28;766;-53
2021/11/27 00:10:48;;;;;;;;;;;14.70;99.90;;;;;;5097751;28;848;-52
2021/11/27 00:13:14;;;;;;;;;;;14.70;99.90;;;;;;5112949;28;1249;-52
2021/11/27 00:15:41;;;;;;;;;;;14.70;99.90;;;;;;5116534;28;872;-52
2021/11/27 00:18:08;;;;;;;;;;;14.60;99.90;;;;;;5115648;28;999;-52
2021/11/27 00:20:44;;;;;;;;;;;14.60;99.90;;;;;;5116470;28;1901;-52
2021/11/27 00:23:10;;;;;;;;;;;14.60;99.90;;;;;;5115666;28;810;-52
2021/11/27 00:25:36;;;;;;;;;;;14.60;99.90;;;;;;5116541;28;767;-52
2021/11/27 00:28:04;;;;;;;;;;;14.60;99.90;;;;;;5115995;28;807;-52
2021/11/27 00:30:32;;;;;;;;;;;14.50;99.90;;;;;;5106080;28;902;-52
2021/11/27 00:32:58;;;;;;;;;;;14.50;99.90;;;;;;5079555;28;879;-51
2021/11/27 00:35:24;;;;;;;;;;;14.60;99.90;;;;;;5099275;28;1041;-51
2021/11/27 00:37:53;;;;;;;;;;;14.50;99.90;;;;;;5096733;28;847;-51
2021/11/27 00:40:19;;;;;;;;;;;14.50;99.90;;;;;;5097075;28;1905;-51
2021/11/27 00:42:45;;;;;;;;;;;14.50;99.90;;;;;;5096642;28;855;-51
2021/11/27 00:45:13;;;;;;;;;;;14.50;99.90;;;;;;5097185;28;815;-51
2021/11/27 00:47:40;;;;;;;;;;;14.50;99.90;;;;;;5099508;28;985;-52
2021/11/27 00:50:09;;;;;;;;;;;14.50;99.90;;;;;;5096656;28;956;-52
2021/11/27 00:52:36;;;;;;;;;;;14.40;99.90;;;;;;5096933;28;845;-55
2021/11/27 00:55:02;;;;;;;;;;;14.40;99.90;;;;;;5098002;28;1314;-52
2021/11/27 00:57:28;;;;;;;;;;;14.40;99.90;;;;;;5115786;28;783;-52
2021/11/27 00:59:54;;;;;;;;;;;14.40;99.90;;;;;;5115694;28;1909;-52
2021/11/27 01:02:21;;;;;;;;;;;14.40;99.90;;;;;;5115406;28;827;-52
2021/11/27 01:04:47;;;;;;;;;;;14.40;99.90;;;;;;5115432;28;868;-52
2021/11/27 01:07:15;;;;;;;;;;;14.30;99.90;;;;;;5115604;28;792;-52
2021/11/27 01:09:41;;;;;;;;;;;14.30;99.90;;;;;;5097177;28;1060;-52
2021/11/27 01:12:07;;;;;;;;;;;14.30;99.90;;;;;;5097074;28;870;-52
2021/11/27 01:14:35;;;;;;;;;;;14.30;99.90;;;;;;5115448;28;836;-52
2021/11/27 01:17:05;;;;;;;;;;;14.30;99.90;;;;;;5115206;28;1359;-52
2021/11/27 01:19:34;;;;;;;;;;;14.30;99.90;;;;;;5115484;28;1955;-52
2021/11/27 01:22:04;;;;;;;;;;;14.30;99.90;;;;;;5080167;28;847;-52
2021/11/27 01:24:30;;;;;;;;;;;14.20;99.90;;;;;;5115246;28;832;-52
2021/11/27 01:26:58;;;;;;;;;;;14.20;99.90;;;;;;5102080;28;835;-53
2021/11/27 01:29:25;;;;;;;;;;;14.20;99.90;;;;;;5081636;28;1437;-54
2021/11/27 01:31:53;;;;;;;;;;;14.20;99.90;;;;;;5115176;28;771;-54
2021/11/27 01:34:21;;;;;;;;;;;14.20;99.90;;;;;;5115246;28;772;-54
2021/11/27 01:36:50;;;;;;;;;;;14.20;99.90;;;;;;5095998;28;1263;-52
2021/11/27 01:39:19;;;;;;;;;;;14.20;99.90;;;;;;5095466;28;878;-52
2021/11/27 01:41:46;;;;;;;;;;;14.20;99.90;;;;;;5096462;28;1901;-51
2021/11/27 01:44:14;;;;;;;;;;;14.10;99.90;;;;;;5096813;28;830;-54
2021/11/27 01:46:40;;;;;;;;;;;14.10;99.90;;;;;;5097169;28;961;-54
2021/11/27 01:49:07;;;;;;;;;;;14.10;99.90;;;;;;5096526;28;842;-54
2021/11/27 01:51:36;;;;;;;;;;;14.10;99.90;;;;;;5095908;28;1269;-52
2021/11/27 01:54:05;;;;;;;;;;;14.10;99.90;;;;;;5096973;28;968;-52
2021/11/27 01:56:34;;;;;;;;;;;14.10;99.90;;;;;;5112500;28;1151;-52
2021/11/27 01:59:00;;;;;;;;;;;14.10;99.90;;;;;;5112592;28;1156;-52
2021/11/27 02:01:28;;;;;;;;;;;14.00;99.90;;;;;;5110298;28;1981;-52
2021/11/27 02:03:56;;;;;;;;;;;14.00;99.90;;;;;;5099525;28;999;-52
2021/11/27 02:06:22;;;;;;;;;;;14.00;99.90;;;;;;5098770;28;999;-53
2021/11/27 02:08:51;;;;;;;;;;;14.00;99.90;;;;;;5099910;28;761;-52
2021/11/27 02:11:19;;;;;;;;;;;14.00;99.90;;;;;;5099589;28;832;-52
2021/11/27 02:13:47;;;;;;;;;;;14.00;99.90;;;;;;5082398;28;897;-52
2021/11/27 02:16:13;;;;;;;;;;;14.00;99.90;;;;;;5082195;28;769;-53
2021/11/27 02:18:39;;;;;;;;;;;13.90;99.90;;;;;;5099899;28;874;-52
2021/11/27 02:21:07;;;;;;;;;;;13.90;99.90;;;;;;5105265;28;1898;-52
2021/11/27 02:23:35;;;;;;;;;;;13.90;99.90;;;;;;5118727;28;844;-53
2021/11/27 02:26:02;;;;;;;;;;;13.90;99.90;;;;;;5094567;28;1123;-53
2021/11/27 02:28:29;;;;;;;;;;;13.90;99.90;;;;;;5118458;28;861;-52
2021/11/27 02:30:55;;;;;;;;;;;13.90;99.90;;;;;;5106798;28;808;-52
2021/11/27 02:33:23;;;;;;;;;;;13.90;99.90;;;;;;5099727;28;1003;-52
2021/11/27 02:35:50;;;;;;;;;;;13.90;99.90;;;;;;5103854;28;867;-52
2021/11/27 02:38:16;;;;;;;;;;;13.80;99.90;;;;;;5098907;28;967;-52
2021/11/27 02:40:44;;;;;;;;;;;13.80;99.90;;;;;;5099029;28;1906;-52
2021/11/27 02:43:10;;;;;;;;;;;13.80;99.90;;;;;;5099705;28;896;-52
2021/11/27 02:45:36;;;;;;;;;;;13.80;99.90;;;;;;5099314;28;839;-53
2021/11/27 02:48:03;;;;;;;;;;;13.80;99.90;;;;;;5104058;28;980;-52
2021/11/27 02:50:29;;;;;;;;;;;13.80;99.90;;;;;;5098789;28;1137;-52
2021/11/27 02:52:56;;;;;;;;;;;13.80;99.90;;;;;;5099100;28;835;-52
2021/11/27 02:55:24;;;;;;;;;;;13.70;99.90;;;;;;5098752;28;1013;-52
2021/11/27 02:57:50;;;;;;;;;;;13.70;99.90;;;;;;5098903;28;825;-52
2021/11/27 03:00:19;;;;;;;;;;;13.70;99.90;;;;;;5099019;28;1910;-52
2021/11/27 03:02:47;;;;;;;;;;;13.70;99.90;;;;;;5047299;28;974;-52
2021/11/27 03:05:13;;;;;;;;;;;13.70;99.90;;;;;;5098299;28;1155;-52
2021/11/27 03:07:39;;;;;;;;;;;13.70;99.90;;;;;;5098282;28;861;-52
2021/11/27 03:10:07;;;;;;;;;;;13.70;99.90;;;;;;5098832;28;835;-52
2021/11/27 03:12:34;;;;;;;;;;;13.60;99.90;;;;;;5098904;28;908;-52
2021/11/27 03:15:00;;;;;;;;;;;13.70;99.90;;;;;;5098684;28;889;-52
2021/11/27 03:17:26;;;;;;;;;;;13.60;99.90;;;;;;5098145;28;884;-52
2021/11/27 03:19:55;;;;;;;;;;;13.60;99.90;;;;;;5098578;28;1955;-52
2021/11/27 03:22:22;;;;;;;;;;;13.60;99.90;;;;;;5098587;28;879;-52
2021/11/27 03:24:54;;;;;;;;;;;13.60;99.90;;;;;;5063728;28;916;-52
2021/11/27 03:27:22;;;;;;;;;;;13.60;99.90;;;;;;5098587;28;849;-51
2021/11/27 03:29:49;;;;;;;;;;;13.60;99.90;;;;;;5105404;28;1379;-52
2021/11/27 03:32:17;;;;;;;;;;;13.60;99.90;;;;;;5116235;28;852;-51
2021/11/27 03:34:43;;;;;;;;;;;13.60;99.90;;;;;;5117311;28;913;-52
2021/11/27 03:37:09;;;;;;;;;;;13.50;99.90;;;;;;5116639;28;892;-52
2021/11/27 03:39:36;;;;;;;;;;;13.50;99.90;;;;;;5116573;28;796;-52
2021/11/27 03:42:03;;;;;;;;;;;13.50;99.90;;;;;;5117236;28;1910;-52
2021/11/27 03:44:30;;;;;;;;;;;13.50;99.90;;;;;;5116790;28;1079;-52
2021/11/27 03:46:59;;;;;;;;;;;13.50;99.90;;;;;;5112566;28;972;-52
2021/11/27 03:49:28;;;;;;;;;;;13.50;99.90;;;;;;5097897;28;980;-52
2021/11/27 03:51:56;;;;;;;;;;;13.50;99.90;;;;;;5097961;28;770;-52
2021/11/27 03:54:24;;;;;;;;;;;13.50;99.90;;;;;;5097875;28;879;-52
2021/11/27 03:56:50;;;;;;;;;;;13.50;99.90;;;;;;5064946;28;1336;-52
2021/11/27 03:59:16;;;;;;;;;;;13.50;99.90;;;;;;5112703;28;1324;-52
2021/11/27 04:01:42;;;;;;;;;;;13.40;99.90;;;;;;5104409;28;1910;-52
2021/11/27 04:04:10;;;;;;;;;;;13.40;99.90;;;;;;5097624;28;895;-52
2021/11/27 04:06:36;;;;;;;;;;;13.40;99.90;;;;;;5097857;28;839;-52
2021/11/27 04:09:06;;;;;;;;;;;13.40;99.90;;;;;;5097537;28;875;-52
2021/11/27 04:11:33;;;;;;;;;;;13.40;99.90;;;;;;5097597;28;890;-52
2021/11/27 04:14:00;;;;;;;;;;;13.40;99.90;;;;;;5097724;28;817;-52
2021/11/27 04:16:28;;;;;;;;;;;13.40;99.90;;;;;;5101666;28;1289;-52
2021/11/27 04:18:55;;;;;;;;;;;13.40;99.90;;;;;;5097184;28;828;-52
2021/11/27 04:21:22;;;;;;;;;;;13.40;99.90;;;;;;5097467;28;1906;-52
2021/11/27 04:23:48;;;;;;;;;;;13.40;99.90;;;;;;5097255;28;919;-52
2021/11/27 04:26:15;;;;;;;;;;;13.40;99.90;;;;;;5108024;28;950;-52
2021/11/27 04:28:41;;;;;;;;;;;13.30;99.90;;;;;;5096609;28;1046;-52
2021/11/27 04:31:08;;;;;;;;;;;13.30;99.90;;;;;;5102500;28;1380;-52
2021/11/27 04:33:34;;;;;;;;;;;13.30;99.90;;;;;;5097264;28;874;-52
2021/11/27 04:36:01;;;;;;;;;;;13.30;99.90;;;;;;5097212;28;986;-52
2021/11/27 04:38:29;;;;;;;;;;;13.30;99.90;;;;;;5097075;28;901;-52
2021/11/27 04:41:00;;;;;;;;;;;13.30;99.90;;;;;;5097347;28;1960;-52
2021/11/27 04:43:26;;;;;;;;;;;13.30;99.90;;;;;;5097136;28;815;-52
2021/11/27 04:45:52;;;;;;;;;;;13.30;99.90;;;;;;5097142;28;758;-52
2021/11/27 04:48:18;;;;;;;;;;;13.30;99.90;;;;;;5097731;28;1043;-52
2021/11/27 04:50:44;;;;;;;;;;;13.30;99.90;;;;;;5079582;28;921;-52
2021/11/27 04:53:10;;;;;;;;;;;13.30;99.90;;;;;;5097219;28;876;-52
2021/11/27 04:55:36;;;;;;;;;;;13.20;99.90;;;;;;5088329;28;1623;-52
2021/11/27 04:58:04;;;;;;;;;;;13.20;99.90;;;;;;5099174;28;830;-52
2021/11/27 05:00:32;;;;;;;;;;;13.20;99.90;;;;;;5079010;28;1918;-52
2021/11/27 05:02:59;;;;;;;;;;;13.20;99.90;;;;;;5079095;28;860;-52
2021/11/27 05:05:27;;;;;;;;;;;13.20;99.90;;;;;;5096901;28;784;-51
2021/11/27 05:07:53;;;;;;;;;;;13.20;99.90;;;;;;5078539;28;1066;-52
2021/11/27 05:10:19;;;;;;;;;;;13.20;99.90;;;;;;5094754;28;1119;-52
2021/11/27 05:12:45;;;;;;;;;;;13.20;99.90;;;;;;5096433;28;812;-52
2021/11/27 05:15:11;;;;;;;;;;;13.20;99.90;;;;;;5096483;28;1055;-52
2021/11/27 05:17:38;;;;;;;;;;;13.10;99.90;;;;;;5096549;28;855;-52
2021/11/27 05:20:05;;;;;;;;;;;13.10;99.90;;;;;;5096717;28;1906;-52
2021/11/27 05:22:31;;;;;;;;;;;13.10;99.90;;;;;;5096807;28;1028;-52
2021/11/27 05:24:59;;;;;;;;;;;13.10;99.90;;;;;;5108934;28;1512;-52
2021/11/27 05:27:25;;;;;;;;;;;13.10;99.90;;;;;;5077857;28;974;-52
2021/11/27 05:29:51;;;;;;;;;;;13.10;99.90;;;;;;5088264;28;876;-52
2021/11/27 05:32:39;;;;;;;;;;;13.10;99.90;;;;;;5100754;28;883;-52
2021/11/27 05:35:07;;;;;;;;;;;13.10;99.90;;;;;;5105754;28;910;-52
2021/11/27 05:37:36;;;;;;;;;;;13.10;99.90;;;;;;5100718;28;997;-52
2021/11/27 05:40:04;;;;;;;;;;;13.10;99.90;;;;;;5083072;28;1895;-52
2021/11/27 05:42:30;;;;;;;;;;;13.10;99.90;;;;;;5100818;28;1018;-52
2021/11/27 05:44:58;;;;;;;;;;;13.00;99.90;;;;;;5100576;28;848;-52
2021/11/27 05:47:24;;;;;;;;;;;13.10;99.90;;;;;;5100402;28;1032;-52
2021/11/27 05:49:50;;;;;;;;;;;13.00;99.90;;;;;;5098094;28;972;-52
2021/11/27 05:52:17;;;;;;;;;;;13.00;99.90;;;;;;5100412;28;876;-52
2021/11/27 05:54:43;;;;;;;;;;;13.00;99.90;;;;;;5100232;28;895;-52
2021/11/27 05:57:09;;;;;;;;;;;13.00;99.90;;;;;;5041916;28;1301;-52
2021/11/27 05:59:37;;;;;;;;;;;13.00;99.90;;;;;;5065738;28;1438;-52
2021/11/27 06:02:04;;;;;;;;;;;13.00;99.90;;;;;;5071566;28;1906;-52
2021/11/27 06:04:31;;;;;;;;;;;13.00;99.90;;;;;;5077945;28;833;-52
2021/11/27 06:06:59;;;;;;;;;;;13.00;99.90;;;;;;5043483;28;996;-51
2021/11/27 06:09:25;;;;;;;;;;;13.00;99.90;;;;;;5078017;28;761;-52
2021/11/27 06:11:51;;;;;;;;;;;13.00;99.90;;;;;;5059942;28;982;-52
2021/11/27 06:14:17;;;;;;;;;;;13.00;99.90;;;;;;5077958;28;833;-52
2021/11/27 06:16:44;;;;;;;;;;;13.00;99.90;;;;;;5077429;28;1253;-52
2021/11/27 06:19:10;;;;;;;;;;;12.90;99.90;;;;;;5060668;28;858;-52
2021/11/27 06:21:38;;;;;;;;;;;12.90;99.90;;;;;;5059505;28;1902;-52
2021/11/27 06:24:07;;;;;;;;;;;12.90;99.90;;;;;;5059650;28;754;-52
2021/11/27 06:26:35;;;;;;;;;;;12.90;99.90;;;;;;5072028;28;801;-52
2021/11/27 06:29:02;;;;;;;;;;;12.90;99.90;;;;;;5077297;28;872;-52
2021/11/27 06:31:28;;;;;;;;;;;12.90;99.90;;;;;;5058939;28;849;-52
2021/11/27 06:33:54;;;;;;;;;;;12.90;99.90;;;;;;5059403;28;791;-52
2021/11/27 06:36:20;;;;;;;;;;;12.90;99.90;;;;;;5059181;28;919;-50
2021/11/27 06:38:46;;;;;;;;;;;12.90;99.90;;;;;;5058860;28;991;-52
2021/11/27 06:41:12;;;;;;;;;;;12.90;99.90;;;;;;5057743;28;1906;-52
2021/11/27 06:43:39;;;;;;;;;;;12.90;99.90;;;;;;5059083;28;899;-52
2021/11/27 06:46:06;;;;;;;;;;;12.90;99.90;;;;;;5059246;28;973;-52
2021/11/27 06:48:33;;;;;;;;;;;12.90;99.90;;;;;;5059589;28;850;-52
2021/11/27 06:50:59;;;;;;;;;;;12.90;99.90;;;;;;5059189;28;804;-52
2021/11/27 06:53:26;;;;;;;;;;;12.90;99.90;;;;;;5057329;28;1373;-52
2021/11/27 06:55:52;;;;;;;;;;;12.80;99.90;;;;;;5076701;28;1279;-52
2021/11/27 06:58:18;;;;;;;;;;;12.80;99.90;;;;;;5117404;28;990;-52
2021/11/27 07:00:44;;;;;;;;;;;12.80;99.90;;;;;;5086982;28;1985;-52
2021/11/27 07:03:11;;;;;;;;;;;12.80;99.90;;;;;;5117895;28;997;-52
2021/11/27 07:05:37;;;;;;;;;;;12.80;99.90;;;;;;5118011;28;873;-52
2021/11/27 07:08:03;;;;;;;;;;;12.80;99.90;;;;;;5113721;28;1043;-52
2021/11/27 07:10:29;;;;;;;;;;;12.80;99.90;;;;;;5099152;28;865;-52
2021/11/27 07:12:56;;;;;;;;;;;12.80;99.90;;;;;;5064472;28;906;-52
2021/11/27 07:15:22;;;;;;;;;;;12.80;99.90;;;;;;5080687;28;942;-52
2021/11/27 07:17:48;;;;;;;;;;;12.80;99.90;;;;;;5098702;28;1027;-52
2021/11/27 07:20:16;;;;;;;;;;;12.80;99.90;;;;;;5099525;28;1965;-52
2021/11/27 07:22:42;;;;;;;;;;;12.80;99.90;;;;;;5117760;28;831;-52
2021/11/27 07:25:08;;;;;;;;;;;12.80;99.90;;;;;;5117452;28;858;-52
2021/11/27 07:27:34;;;;;;;;;;;12.80;99.90;;;;;;5117449;28;929;-52
2021/11/27 07:30:00;;;;;;;;;;;12.80;99.90;;;;;;5110940;28;1137;-52
2021/11/27 07:32:26;;;;;;;;;;;12.90;99.90;;;;;;5097033;28;825;-52
2021/11/27 07:34:53;;;;;;;;;;;12.90;99.90;;;;;;5097098;28;1237;-52
2021/11/27 07:37:21;;;;;;;;;;;13.00;99.90;;;;;;5097731;28;831;-52
2021/11/27 07:39:48;;;;;;;;;;;13.00;99.90;;;;;;5098398;28;746;-52
2021/11/27 07:42:16;;;;;;;;;;;13.10;99.90;;;;;;5096173;28;1902;-52
2021/11/27 07:44:43;;;;;;;;;;;13.10;99.90;;;;;;5098480;28;904;-52
2021/11/27 07:47:09;;;;;;;;;;;13.20;99.90;;;;;;5103522;28;1047;-52
2021/11/27 07:49:36;;;;;;;;;;;13.20;99.90;;;;;;5103113;28;1380;-52
2021/11/27 07:52:02;;;;;;;;;;;13.40;99.90;;;;;;5104621;28;923;-52
2021/11/27 07:54:28;;;;;;;;;;;13.60;99.90;;;;;;5113504;28;1202;-52
2021/11/27 07:56:56;;;;;;;;;;;13.70;99.90;;;;;;5113549;28;1383;-52
2021/11/27 07:59:23;;;;;;;;;;;13.90;99.90;;;;;;5111382;28;1327;-52
2021/11/27 08:01:50;;;;;;;;;;;14.10;99.90;;;;;;5111763;28;1902;-52
2021/11/27 08:04:18;;;;;;;;;;;14.30;99.90;;;;;;5093353;28;1512;-52
2021/11/27 08:06:44;;;;;;;;;;;14.50;99.90;;;;;;5113408;28;1126;-52
2021/11/27 08:09:10;;;;;;;;;;;14.70;99.90;;;;;;5112513;28;1288;-52
2021/11/27 08:11:36;;;;;;;;;;;14.80;99.90;;;;;;5113044;28;1118;-52
2021/11/27 08:14:03;;;;;;;;;;;15.10;99.90;;;;;;5113654;28;1024;-52
2021/11/27 08:16:29;;;;;;;;;;;15.10;99.90;;;;;;5112054;28;1297;-52
2021/11/27 08:18:55;;;;;;;;;;;15.30;99.90;;;;;;5111550;28;1056;-52
2021/11/27 08:21:21;;;;;;;;;;;15.40;99.90;;;;;;5112022;28;1973;-52
2021/11/27 08:23:49;;;;;;;;;;;15.50;99.90;;;;;;5111696;28;1277;-52
2021/11/27 08:26:15;;;;;;;;;;;15.50;99.90;;;;;;5086329;28;1197;-52
2021/11/27 08:28:41;;;;;;;;;;;15.60;99.90;;;;;;5111286;28;1162;-52
2021/11/27 08:31:07;;;;;;;;;;;15.70;99.90;;;;;;5109120;28;1008;-52
2021/11/27 08:33:33;;;;;;;;;;;15.70;99.90;;;;;;5111031;28;1178;-52
2021/11/27 08:36:00;;;;;;;;;;;15.70;99.90;;;;;;5108495;28;1257;-52
2021/11/27 08:38:29;;;;;;;;;;;15.80;99.90;;;;;;5109453;28;1103;-52
2021/11/27 08:40:57;;;;;;;;;;;15.80;99.90;;;;;;5113075;28;1969;-52
2021/11/27 08:43:25;;;;;;;;;;;15.80;99.90;;;;;;5091356;28;1127;-53
2021/11/27 08:45:51;;;;;;;;;;;15.80;99.90;;;;;;5104219;28;1395;-53
2021/11/27 08:48:17;;;;;;;;;;;15.80;99.90;;;;;;5098859;28;1039;-53
2021/11/27 08:50:43;;;;;;;;;;;15.80;99.90;;;;;;5061003;28;1083;-53
2021/11/27 08:53:09;;;;;;;;;;;15.90;99.90;;;;;;5095045;28;892;-54
2021/11/27 08:55:35;;;;;;;;;;;15.80;99.90;;;;;;5101420;28;1278;-53
2021/11/27 08:58:01;;;;;;;;;;;15.90;99.90;;;;;;5115559;28;1108;-53
2021/11/27 09:00:29;;;;;;;;;;;15.90;99.90;;;;;;5115835;28;821;-53
2021/11/27 09:02:57;;;;;;;;;;;15.90;99.90;;;;;;5115126;28;1914;-54
2021/11/27 09:05:25;;;;;;;;;;;15.50;99.90;;;;;;5115255;28;824;-53
2021/11/27 09:07:52;;;;;;;;;;;14.40;99.90;;;;;;5115236;28;847;-52
2021/11/27 09:10:19;;;;;;;;;;;13.70;99.90;;;;;;5115499;28;915;-54
2021/11/27 09:12:46;;;;;;;;;;;13.40;99.90;;;;;;5114886;28;756;-53
2021/11/27 09:15:12;;;;;;;;;;;13.60;99.90;;;;;;5096054;28;1018;-53
2021/11/27 09:17:39;;;;;;;;;;;14.00;99.90;;;;;;5114769;28;1113;-53
2021/11/27 09:20:05;;;;;;;;;;;14.40;99.90;;;;;;5112560;28;1070;-53
2021/11/27 09:22:31;;;;;;;;;;;14.80;99.90;;;;;;5111185;28;1906;-53
2021/11/27 09:24:58;;;;;;;;;;;15.00;99.90;;;;;;5114542;28;1149;-53
2021/11/27 09:27:24;;;;;;;;;;;15.30;99.90;;;;;;5110976;28;1204;-53
2021/11/27 09:29:52;;;;;;;;;;;15.50;99.90;;;;;;5108796;28;1401;-53
2021/11/27 09:32:19;;;;;;;;;;;15.80;99.90;;;;;;5106379;28;1114;-53
2021/11/27 09:34:45;;;;;;;;;;;16.20;99.90;;;;;;5108885;28;1141;-53
2021/11/27 09:37:14;;;;;;;;;;;16.40;99.90;;;;;;5111459;28;1125;-53
2021/11/27 09:39:42;;;;;;;;;;;16.50;99.90;;;;;;5099902;28;1319;-54
2021/11/27 09:42:14;;;;;;;;;;;16.60;99.90;;;;;;5106653;28;1893;-54
2021/11/27 09:44:45;;;;;;;;;;;16.70;99.90;;;;;;5111902;28;1120;-54
2021/11/27 09:47:11;;;;;;;;;;;16.70;99.90;;;;;;5108448;28;1019;-54
2021/11/27 09:49:38;;;;;;;;;;;16.70;99.90;;;;;;5109170;28;989;-55
2021/11/27 09:52:06;;;;;;;;;;;16.80;99.90;;;;;;5099500;28;1025;-55
2021/11/27 09:54:34;;;;;;;;;;;16.80;99.90;;;;;;5110295;28;1330;-55
2021/11/27 09:57:04;;;;;;;;;;;16.80;99.90;;;;;;5100761;28;1358;-53
2021/11/27 09:59:31;;;;;;;;;;;16.80;99.90;;;;;;5108480;28;1300;-55
2021/11/27 10:02:01;;;;;;;;;;;16.90;99.90;;;;;;5109697;28;1978;-55
2021/11/27 10:04:34;;;;;;;;;;;16.90;99.90;;;;;;5099506;28;1359;-55
2021/11/27 10:07:04;;;;;;;;;;;16.80;99.90;;;;;;5099894;28;2275;-55
2021/11/27 10:09:37;;;;;;;;;;;16.80;99.90;;;;;;5108420;28;1365;-53
2021/11/27 10:12:07;;;;;;;;;;;16.80;99.90;;;;;;5106145;28;1477;-51
2021/11/27 10:14:35;;;;;;;;;;;16.80;99.90;;;;;;5100738;28;1100;-51
2021/11/27 10:17:06;;;;;;;;;;;16.70;99.90;;;;;;5116930;28;1373;-51
2021/11/27 10:19:41;;;;;;;;;;;16.60;99.90;;;;;;5114113;28;1158;-51
2021/11/27 10:22:08;;;;;;;;;;;16.60;99.90;;;;;;5122838;27;1914;-51
2021/11/27 10:24:35;;;;;;;;;;;16.50;99.90;;;;;;5114388;28;1382;-53
2021/11/27 10:27:02;;;;;;;;;;;16.50;99.90;;;;;;5112563;28;1482;-51
2021/11/27 10:29:33;;;;;;;;;;;16.50;99.90;;;;;;5113964;28;1358;-52
2021/11/27 10:32:07;;;;;;;;;;;16.50;99.90;;;;;;5098172;28;1272;-52
2021/11/27 10:34:33;;;;;;;;;;;16.50;99.90;;;;;;5112186;28;1160;-53
2021/11/27 10:37:05;;;;;;;;;;;16.50;99.90;;;;;;5113179;28;1336;-52
2021/11/27 10:39:31;;;;;;;;;;;16.40;99.90;;;;;;5111001;28;1103;-52
2021/11/27 10:42:02;;;;;;;;;;;16.40;99.90;;;;;;5113820;28;1906;-52
2021/11/27 10:44:35;;;;;;;;;;;16.30;99.90;;;;;;5113695;28;1149;-52
2021/11/27 10:47:10;;;;;;;;;;;16.30;99.90;;;;;;5114236;28;1382;-52
2021/11/27 10:49:38;;;;;;;;;;;16.30;99.90;;;;;;5111205;28;1099;-52
2021/11/27 10:52:06;;;;;;;;;;;16.20;99.90;;;;;;5102845;28;980;-53
2021/11/27 10:54:55;;;;;;;;;;;16.10;99.90;;;;;;5079317;28;968;-53
2021/11/27 10:57:35;;;;;;;;;;;16.10;99.90;;;;;;5102560;28;1399;-52
2021/11/27 11:00:06;;;;;;;;;;;16.10;99.90;;;;;;5099709;28;765;-52
2021/11/27 11:02:34;;;;;;;;;;;16.10;99.90;;;;;;5117560;28;1909;-52
2021/11/27 11:05:19;;;;;;;;;;;16.00;99.90;;;;;;5114928;28;854;-52
2021/11/27 11:07:53;;;;;;;;;;;16.00;99.90;;;;;;5117088;28;912;-52
2021/11/27 11:10:24;;;;;;;;;;;16.00;99.90;;;;;;5112842;28;1352;-52
2021/11/27 11:12:55;;;;;;;;;;;15.90;99.90;;;;;;5096994;28;1013;-57
2021/11/27 11:15:41;;;;;;;;;;;15.90;99.90;;;;;;5098760;28;910;-53
2021/11/27 11:18:11;;;;;;;;;;;15.80;99.90;;;;;;5114473;28;813;-52
2021/11/27 11:20:40;;;;;;;;;;;15.80;99.90;;;;;;5098414;28;893;-52
2021/11/27 11:23:14;;;;;;;;;;;15.70;99.90;;;;;;5098554;28;1902;-52
2021/11/27 11:25:57;;;;;;;;;;;15.70;99.90;;;;;;5104811;28;801;-52
2021/11/27 11:28:24;;;;;;;;;;;15.70;99.90;;;;;;5089277;28;961;-52
2021/11/27 11:30:51;;;;;;;;;;;15.60;99.90;;;;;;5098572;28;765;-52
2021/11/27 11:33:17;;;;;;;;;;;15.60;99.90;;;;;;5098583;28;1157;-52
2021/11/27 11:35:43;;;;;;;;;;;15.50;99.90;;;;;;5098277;28;891;-52
2021/11/27 11:38:11;;;;;;;;;;;15.50;99.90;;;;;;5080879;28;891;-52
2021/11/27 11:40:41;;;;;;;;;;;15.50;99.90;;;;;;5098563;28;881;-52
2021/11/27 11:43:07;;;;;;;;;;;15.40;99.90;;;;;;5098158;28;1973;-52
2021/11/27 11:45:35;;;;;;;;;;;15.40;99.90;;;;;;5098478;28;1006;-52
2021/11/27 11:48:02;;;;;;;;;;;15.40;99.90;;;;;;5097825;28;957;-52
2021/11/27 11:50:33;;;;;;;;;;;15.40;99.90;;;;;;5097994;28;802;-52
2021/11/27 11:53:17;;;;;;;;;;;15.30;99.90;;;;;;5098160;28;906;-52
2021/11/27 11:55:51;;;;;;;;;;;15.30;99.90;;;;;;5104529;28;1036;-52
2021/11/27 11:58:38;;;;;;;;;;;15.30;99.90;;;;;;5116284;28;925;-52
2021/11/27 12:01:16;;;;;;;;;;;15.20;99.90;;;;;;5116552;28;1986;-52
2021/11/27 12:03:43;;;;;;;;;;;15.20;99.90;;;;;;5116323;28;1168;-52
2021/11/27 12:06:14;;;;;;;;;;;15.30;99.90;;;;;;5116505;28;824;-52
2021/11/27 12:08:49;;;;;;;;;;;15.20;99.90;;;;;;5115975;28;932;-52
2021/11/27 12:11:35;;;;;;;;;;;15.20;99.90;;;;;;5098774;28;989;-53
2021/11/27 12:14:01;;;;;;;;;;;15.20;99.90;;;;;;5116404;28;914;-53
2021/11/27 12:16:29;;;;;;;;;;;15.20;99.90;;;;;;5107662;28;1186;-53
2021/11/27 12:19:06;;;;;;;;;;;15.20;99.90;;;;;;5097445;28;851;-53
2021/11/27 12:21:33;;;;;;;;;;;15.20;99.90;;;;;;5097364;28;1914;-53
2021/11/27 12:24:00;;;;;;;;;;;15.20;99.90;;;;;;5097573;28;888;-53
2021/11/27 12:26:26;;;;;;;;;;;15.20;99.90;;;;;;5109942;28;768;-53
2021/11/27 12:28:52;;;;;;;;;;;15.20;99.90;;;;;;5098122;28;1001;-53
2021/11/27 12:31:18;;;;;;;;;;;15.20;99.90;;;;;;5115993;28;1007;-54
2021/11/27 12:33:48;;;;;;;;;;;15.20;99.90;;;;;;5116334;28;845;-55
2021/11/27 12:36:30;;;;;;;;;;;15.10;99.90;;;;;;5116224;28;968;-53
2021/11/27 12:38:57;;;;;;;;;;;15.10;99.90;;;;;;5115158;28;869;-53
2021/11/27 12:41:28;;;;;;;;;;;15.10;99.90;;;;;;5115824;28;1905;-53
2021/11/27 12:44:12;;;;;;;;;;;15.10;99.90;;;;;;5115598;28;837;-53
2021/11/27 12:46:42;;;;;;;;;;;15.10;99.90;;;;;;5116077;28;876;-53
2021/11/27 12:49:29;;;;;;;;;;;15.10;99.90;;;;;;5115740;28;820;-53
2021/11/27 12:52:31;;;;;;;;;;;15.10;99.90;;;;;;5115701;28;1176;-55
2021/11/27 12:55:18;;;;;;;;;;;15.20;99.90;;;;;;5054006;28;1276;-53
2021/11/27 12:58:06;;;;;;;;;;;15.10;99.90;;;;;;5073599;28;2023;-54
2021/11/27 13:00:38;;;;;;;;;;;15.10;99.90;;;;;;5075220;28;1056;-53
2021/11/27 13:03:05;;;;;;;;;;;15.10;99.90;;;;;;5075169;28;1910;-54
2021/11/27 13:05:35;;;;;;;;;;;15.10;99.90;;;;;;5070565;28;938;-53
2021/11/27 13:08:02;;;;;;;;;;;15.10;99.90;;;;;;5075050;28;876;-54
2021/11/27 13:10:31;;;;;;;;;;;15.00;99.90;;;;;;5074904;28;769;-55
2021/11/27 13:13:00;;;;;;;;;;;15.00;99.90;;;;;;5056802;28;933;-55
2021/11/27 13:15:26;;;;;;;;;;;15.00;99.90;;;;;;5056488;28;916;-54
2021/11/27 13:18:04;;;;;;;;;;;15.00;99.90;;;;;;5056677;28;1041;-54
2021/11/27 13:20:50;;;;;;;;;;;14.90;99.90;;;;;;5056462;28;925;-55
2021/11/27 13:23:20;;;;;;;;;;;14.90;99.90;;;;;;5058777;28;1914;-54
2021/11/27 13:25:48;;;;;;;;;;;14.90;99.90;;;;;;5055967;28;856;-54
2021/11/27 13:28:19;;;;;;;;;;;14.80;99.90;;;;;;5055913;28;899;-54
2021/11/27 13:30:46;;;;;;;;;;;14.80;99.90;;;;;;5056497;28;772;-54
2021/11/27 13:33:13;;;;;;;;;;;14.80;99.90;;;;;;5038653;28;1335;-54
2021/11/27 13:35:40;;;;;;;;;;;14.70;99.90;;;;;;5056254;28;865;-54
2021/11/27 13:38:08;;;;;;;;;;;14.70;99.90;;;;;;5056715;28;863;-54
2021/11/27 13:40:39;;;;;;;;;;;14.60;99.90;;;;;;5056257;28;847;-53
2021/11/27 13:43:07;;;;;;;;;;;14.60;99.90;;;;;;5056440;28;1961;-53
2021/11/27 13:45:33;;;;;;;;;;;14.60;99.90;;;;;;5056280;28;921;-53
2021/11/27 13:48:01;;;;;;;;;;;14.50;99.90;;;;;;5056305;28;914;-53
2021/11/27 13:50:27;;;;;;;;;;;14.50;99.90;;;;;;5058946;28;868;-53
2021/11/27 13:52:53;;;;;;;;;;;14.50;99.90;;;;;;5060203;28;740;-53
2021/11/27 13:55:40;;;;;;;;;;;14.50;99.90;;;;;;5059116;28;1095;-54
2021/11/27 13:58:12;;;;;;;;;;;14.50;99.90;;;;;;5099790;28;1759;-53
2021/11/27 14:00:38;;;;;;;;;;;14.50;99.90;;;;;;5117264;28;820;-53
2021/11/27 14:03:08;;;;;;;;;;;14.40;99.90;;;;;;5119002;28;1959;-54
2021/11/27 14:05:38;;;;;;;;;;;14.40;99.90;;;;;;5099925;28;907;-54
2021/11/27 14:08:08;;;;;;;;;;;14.40;99.90;;;;;;5117676;28;841;-53
2021/11/27 14:10:34;;;;;;;;;;;14.40;99.90;;;;;;5099384;28;1035;-54
2021/11/27 14:13:04;;;;;;;;;;;14.40;99.90;;;;;;5099948;28;785;-54
2021/11/27 14:15:38;;;;;;;;;;;14.40;99.90;;;;;;5100121;28;824;-54
2021/11/27 14:18:04;;;;;;;;;;;14.40;99.90;;;;;;5100215;28;857;-54
2021/11/27 14:20:40;;;;;;;;;;;14.30;99.90;;;;;;5102483;28;1352;-54
2021/11/27 14:23:11;;;;;;;;;;;14.30;99.90;;;;;;5100081;28;1963;-53
2021/11/27 14:25:38;;;;;;;;;;;14.40;99.90;;;;;;5105334;28;865;-53
2021/11/27 14:28:06;;;;;;;;;;;14.30;99.90;;;;;;5118792;28;818;-53
2021/11/27 14:30:37;;;;;;;;;;;14.30;99.90;;;;;;5118433;28;760;-53
2021/11/27 14:33:21;;;;;;;;;;;14.30;99.90;;;;;;5117543;28;913;-53
2021/11/27 14:35:56;;;;;;;;;;;14.30;99.90;;;;;;5118295;28;979;-53
2021/11/27 14:38:42;;;;;;;;;;;14.30;99.90;;;;;;5118495;28;879;-53
2021/11/27 14:41:09;;;;;;;;;;;14.30;99.90;;;;;;5118216;28;921;-53
2021/11/27 14:44:05;;;;;;;;;;;14.20;99.90;;;;;;5117797;28;1898;-53